sensor_id;sensor_type;location;lat;lon;timestamp;P1;durP1;ratioP1;P2;durP2;ratioP2
41323;SDS011;27073;51.128;4.220;2022-07-06T00:01:44;10.77;;;4.22;;
41323;SDS011;27073;51.128;4.220;2022-07-06T00:04:10;6.82;;;3.72;;
41323;SDS011;27073;51.128;4.220;2022-07-06T00:06:36;7.45;;;3.53;;
41323;SDS011;27073;51.128;4.220;2022-07-06T00:09:02;7.20;;;3.85;;
41323;SDS011;27073;51.128;4.220;2022-07-06T00:11:28;8.00;;;4.60;;
41323;SDS011;27073;51.128;4.220;2022-07-06T00:13:54;7.25;;;4.15;;
41323;SDS011;27073;51.128;4.220;2022-07-06T00:16:21;4.88;;;3.45;;
41323;SDS011;27073;51.128;4.220;2022-07-06T00:18:47;4.60;;;3.10;;
41323;SDS011;27073;51.128;4.220;2022-07-06T00:21:13;6.65;;;3.30;;
41323;SDS011;27073;51.128;4.220;2022-07-06T00:23:39;4.60;;;3.58;;
41323;SDS011;27073;51.128;4.220;2022-07-06T00:26:05;6.25;;;3.00;;
41323;SDS011;27073;51.128;4.220;2022-07-06T00:28:31;5.88;;;3.08;;
41323;SDS011;27073;51.128;4.220;2022-07-06T00:30:57;6.82;;;3.10;;
41323;SDS011;27073;51.128;4.220;2022-07-06T00:33:23;6.80;;;3.22;;
41323;SDS011;27073;51.128;4.220;2022-07-06T00:35:49;6.13;;;3.05;;
41323;SDS011;27073;51.128;4.220;2022-07-06T00:38:14;6.97;;;3.08;;
41323;SDS011;27073;51.128;4.220;2022-07-06T00:40:43;4.93;;;3.00;;
41323;SDS011;27073;51.128;4.220;2022-07-06T00:43:09;7.20;;;3.03;;
41323;SDS011;27073;51.128;4.220;2022-07-06T00:45:35;4.80;;;3.53;;
41323;SDS011;27073;51.128;4.220;2022-07-06T00:48:00;4.90;;;3.80;;
41323;SDS011;27073;51.128;4.220;2022-07-06T00:50:27;5.50;;;3.38;;
41323;SDS011;27073;51.128;4.220;2022-07-06T00:52:54;6.80;;;3.78;;
41323;SDS011;27073;51.128;4.220;2022-07-06T00:55:25;8.55;;;3.88;;
41323;SDS011;27073;51.128;4.220;2022-07-06T00:57:52;7.32;;;3.58;;
41323;SDS011;27073;51.128;4.220;2022-07-06T01:00:20;6.13;;;3.45;;
41323;SDS011;27073;51.128;4.220;2022-07-06T01:02:50;4.85;;;3.28;;
41323;SDS011;27073;51.128;4.220;2022-07-06T01:05:17;3.95;;;3.05;;
41323;SDS011;27073;51.128;4.220;2022-07-06T01:07:45;5.78;;;3.25;;
41323;SDS011;27073;51.128;4.220;2022-07-06T01:10:12;4.70;;;2.97;;
41323;SDS011;27073;51.128;4.220;2022-07-06T01:12:40;3.53;;;2.58;;
41323;SDS011;27073;51.128;4.220;2022-07-06T01:15:12;4.65;;;2.63;;
41323;SDS011;27073;51.128;4.220;2022-07-06T01:17:42;6.18;;;3.15;;
41323;SDS011;27073;51.128;4.220;2022-07-06T01:22:37;6.03;;;3.60;;
41323;SDS011;27073;51.128;4.220;2022-07-06T01:25:04;6.18;;;3.00;;
41323;SDS011;27073;51.128;4.220;2022-07-06T01:27:30;5.05;;;3.25;;
41323;SDS011;27073;51.128;4.220;2022-07-06T01:29:57;5.07;;;3.33;;
41323;SDS011;27073;51.128;4.220;2022-07-06T01:32:24;6.60;;;4.05;;
41323;SDS011;27073;51.128;4.220;2022-07-06T01:34:50;5.97;;;3.38;;
41323;SDS011;27073;51.128;4.220;2022-07-06T01:37:16;6.65;;;3.60;;
41323;SDS011;27073;51.128;4.220;2022-07-06T01:39:41;4.63;;;3.50;;
41323;SDS011;27073;51.128;4.220;2022-07-06T01:42:07;5.97;;;3.53;;
41323;SDS011;27073;51.128;4.220;2022-07-06T01:44:33;5.30;;;3.08;;
41323;SDS011;27073;51.128;4.220;2022-07-06T01:46:59;3.75;;;3.35;;
41323;SDS011;27073;51.128;4.220;2022-07-06T01:49:24;8.75;;;4.00;;
41323;SDS011;27073;51.128;4.220;2022-07-06T01:51:50;4.43;;;3.60;;
41323;SDS011;27073;51.128;4.220;2022-07-06T01:54:16;5.88;;;3.97;;
41323;SDS011;27073;51.128;4.220;2022-07-06T01:56:42;5.88;;;3.95;;
41323;SDS011;27073;51.128;4.220;2022-07-06T01:59:08;6.70;;;3.40;;
41323;SDS011;27073;51.128;4.220;2022-07-06T02:01:35;6.85;;;3.78;;
41323;SDS011;27073;51.128;4.220;2022-07-06T02:04:01;6.40;;;4.13;;
41323;SDS011;27073;51.128;4.220;2022-07-06T02:06:27;6.38;;;4.03;;
41323;SDS011;27073;51.128;4.220;2022-07-06T02:08:53;5.65;;;3.95;;
41323;SDS011;27073;51.128;4.220;2022-07-06T02:11:19;6.53;;;4.00;;
41323;SDS011;27073;51.128;4.220;2022-07-06T02:13:45;8.75;;;4.28;;
41323;SDS011;27073;51.128;4.220;2022-07-06T02:16:11;4.40;;;3.85;;
41323;SDS011;27073;51.128;4.220;2022-07-06T02:18:37;6.35;;;3.80;;
41323;SDS011;27073;51.128;4.220;2022-07-06T02:21:03;8.95;;;3.85;;
41323;SDS011;27073;51.128;4.220;2022-07-06T02:23:29;4.50;;;3.28;;
41323;SDS011;27073;51.128;4.220;2022-07-06T02:25:56;7.32;;;3.97;;
41323;SDS011;27073;51.128;4.220;2022-07-06T02:28:23;6.10;;;4.28;;
41323;SDS011;27073;51.128;4.220;2022-07-06T02:30:49;6.68;;;3.45;;
41323;SDS011;27073;51.128;4.220;2022-07-06T02:33:15;4.75;;;3.78;;
41323;SDS011;27073;51.128;4.220;2022-07-06T02:35:40;6.47;;;3.88;;
41323;SDS011;27073;51.128;4.220;2022-07-06T02:38:09;6.38;;;3.97;;
41323;SDS011;27073;51.128;4.220;2022-07-06T02:40:36;6.88;;;4.03;;
41323;SDS011;27073;51.128;4.220;2022-07-06T02:43:03;4.68;;;4.13;;
41323;SDS011;27073;51.128;4.220;2022-07-06T02:45:30;7.13;;;4.32;;
41323;SDS011;27073;51.128;4.220;2022-07-06T02:47:56;7.50;;;4.20;;
41323;SDS011;27073;51.128;4.220;2022-07-06T02:50:23;8.05;;;4.45;;
41323;SDS011;27073;51.128;4.220;2022-07-06T02:52:51;5.80;;;3.30;;
41323;SDS011;27073;51.128;4.220;2022-07-06T02:55:18;4.70;;;4.13;;
41323;SDS011;27073;51.128;4.220;2022-07-06T02:57:43;6.88;;;4.07;;
41323;SDS011;27073;51.128;4.220;2022-07-06T03:00:11;7.22;;;4.38;;
41323;SDS011;27073;51.128;4.220;2022-07-06T03:02:38;5.07;;;4.10;;
41323;SDS011;27073;51.128;4.220;2022-07-06T03:05:05;6.82;;;4.90;;
41323;SDS011;27073;51.128;4.220;2022-07-06T03:07:32;6.20;;;4.28;;
41323;SDS011;27073;51.128;4.220;2022-07-06T03:09:58;9.18;;;5.35;;
41323;SDS011;27073;51.128;4.220;2022-07-06T03:12:25;7.45;;;4.63;;
41323;SDS011;27073;51.128;4.220;2022-07-06T03:14:50;5.20;;;4.15;;
41323;SDS011;27073;51.128;4.220;2022-07-06T03:17:16;8.82;;;4.57;;
41323;SDS011;27073;51.128;4.220;2022-07-06T03:19:42;4.65;;;4.13;;
41323;SDS011;27073;51.128;4.220;2022-07-06T03:22:08;8.05;;;4.72;;
41323;SDS011;27073;51.128;4.220;2022-07-06T03:24:34;6.07;;;4.05;;
41323;SDS011;27073;51.128;4.220;2022-07-06T03:27:00;9.85;;;4.82;;
41323;SDS011;27073;51.128;4.220;2022-07-06T03:29:26;6.22;;;4.57;;
41323;SDS011;27073;51.128;4.220;2022-07-06T03:31:52;7.70;;;4.20;;
41323;SDS011;27073;51.128;4.220;2022-07-06T03:34:18;8.80;;;4.70;;
41323;SDS011;27073;51.128;4.220;2022-07-06T03:36:44;6.22;;;4.35;;
41323;SDS011;27073;51.128;4.220;2022-07-06T03:39:10;8.45;;;4.68;;
41323;SDS011;27073;51.128;4.220;2022-07-06T03:41:37;5.93;;;4.82;;
41323;SDS011;27073;51.128;4.220;2022-07-06T03:44:03;9.60;;;5.30;;
41323;SDS011;27073;51.128;4.220;2022-07-06T03:46:30;6.60;;;4.75;;
41323;SDS011;27073;51.128;4.220;2022-07-06T03:48:56;6.38;;;4.65;;
41323;SDS011;27073;51.128;4.220;2022-07-06T03:51:23;7.22;;;4.85;;
41323;SDS011;27073;51.128;4.220;2022-07-06T03:53:50;8.80;;;4.95;;
41323;SDS011;27073;51.128;4.220;2022-07-06T03:56:16;5.85;;;4.50;;
41323;SDS011;27073;51.128;4.220;2022-07-06T03:58:58;8.27;;;4.22;;
41323;SDS011;27073;51.128;4.220;2022-07-06T04:01:26;7.45;;;4.45;;
41323;SDS011;27073;51.128;4.220;2022-07-06T04:03:53;6.07;;;4.13;;
41323;SDS011;27073;51.128;4.220;2022-07-06T04:06:19;8.38;;;5.40;;
41323;SDS011;27073;51.128;4.220;2022-07-06T04:08:45;6.57;;;5.57;;
41323;SDS011;27073;51.128;4.220;2022-07-06T04:11:11;9.07;;;5.95;;
41323;SDS011;27073;51.128;4.220;2022-07-06T04:13:37;9.25;;;7.18;;
41323;SDS011;27073;51.128;4.220;2022-07-06T04:16:05;10.05;;;6.72;;
41323;SDS011;27073;51.128;4.220;2022-07-06T04:18:31;13.43;;;8.40;;
41323;SDS011;27073;51.128;4.220;2022-07-06T04:20:57;12.10;;;7.43;;
41323;SDS011;27073;51.128;4.220;2022-07-06T04:23:24;9.93;;;7.85;;
41323;SDS011;27073;51.128;4.220;2022-07-06T04:25:52;12.23;;;8.32;;
41323;SDS011;27073;51.128;4.220;2022-07-06T04:28:19;9.77;;;7.78;;
41323;SDS011;27073;51.128;4.220;2022-07-06T04:30:44;13.23;;;8.00;;
41323;SDS011;27073;51.128;4.220;2022-07-06T04:33:14;10.02;;;7.40;;
41323;SDS011;27073;51.128;4.220;2022-07-06T04:35:42;9.52;;;6.80;;
41323;SDS011;27073;51.128;4.220;2022-07-06T04:38:09;10.68;;;7.72;;
41323;SDS011;27073;51.128;4.220;2022-07-06T04:40:35;9.13;;;8.05;;
41323;SDS011;27073;51.128;4.220;2022-07-06T04:45:32;11.45;;;6.10;;
41323;SDS011;27073;51.128;4.220;2022-07-06T04:47:59;7.28;;;5.85;;
41323;SDS011;27073;51.128;4.220;2022-07-06T04:50:25;9.98;;;6.30;;
41323;SDS011;27073;51.128;4.220;2022-07-06T04:52:53;10.85;;;6.57;;
41323;SDS011;27073;51.128;4.220;2022-07-06T04:55:20;11.25;;;6.78;;
41323;SDS011;27073;51.128;4.220;2022-07-06T04:57:47;8.35;;;6.82;;
41323;SDS011;27073;51.128;4.220;2022-07-06T05:00:15;7.80;;;6.65;;
41323;SDS011;27073;51.128;4.220;2022-07-06T05:02:41;8.40;;;6.88;;
41323;SDS011;27073;51.128;4.220;2022-07-06T05:05:07;10.52;;;7.60;;
41323;SDS011;27073;51.128;4.220;2022-07-06T05:07:35;12.85;;;8.35;;
41323;SDS011;27073;51.128;4.220;2022-07-06T05:10:05;14.23;;;8.83;;
41323;SDS011;27073;51.128;4.220;2022-07-06T05:12:32;12.82;;;9.35;;
41323;SDS011;27073;51.128;4.220;2022-07-06T05:14:58;14.73;;;8.57;;
41323;SDS011;27073;51.128;4.220;2022-07-06T05:17:25;16.98;;;9.75;;
41323;SDS011;27073;51.128;4.220;2022-07-06T05:19:52;10.90;;;8.75;;
41323;SDS011;27073;51.128;4.220;2022-07-06T05:22:18;16.70;;;9.05;;
41323;SDS011;27073;51.128;4.220;2022-07-06T05:24:45;11.90;;;8.65;;
41323;SDS011;27073;51.128;4.220;2022-07-06T05:27:11;11.52;;;8.32;;
41323;SDS011;27073;51.128;4.220;2022-07-06T05:29:37;9.95;;;8.38;;
41323;SDS011;27073;51.128;4.220;2022-07-06T05:32:03;10.70;;;8.07;;
41323;SDS011;27073;51.128;4.220;2022-07-06T05:34:29;12.38;;;8.52;;
41323;SDS011;27073;51.128;4.220;2022-07-06T05:36:55;13.52;;;8.73;;
41323;SDS011;27073;51.128;4.220;2022-07-06T05:39:21;12.55;;;9.35;;
41323;SDS011;27073;51.128;4.220;2022-07-06T05:41:48;13.02;;;9.20;;
41323;SDS011;27073;51.128;4.220;2022-07-06T05:44:15;11.40;;;8.52;;
41323;SDS011;27073;51.128;4.220;2022-07-06T05:46:41;10.95;;;7.55;;
41323;SDS011;27073;51.128;4.220;2022-07-06T05:49:07;9.85;;;7.65;;
41323;SDS011;27073;51.128;4.220;2022-07-06T05:51:51;11.48;;;7.22;;
41323;SDS011;27073;51.128;4.220;2022-07-06T05:54:18;9.15;;;6.47;;
41323;SDS011;27073;51.128;4.220;2022-07-06T05:56:46;11.45;;;7.25;;
41323;SDS011;27073;51.128;4.220;2022-07-06T05:59:12;7.68;;;4.97;;
41323;SDS011;27073;51.128;4.220;2022-07-06T06:01:38;5.72;;;4.53;;
41323;SDS011;27073;51.128;4.220;2022-07-06T06:04:10;9.07;;;5.50;;
41323;SDS011;27073;51.128;4.220;2022-07-06T06:06:35;8.70;;;5.55;;
41323;SDS011;27073;51.128;4.220;2022-07-06T06:09:01;10.30;;;6.30;;
41323;SDS011;27073;51.128;4.220;2022-07-06T06:11:27;11.15;;;7.65;;
41323;SDS011;27073;51.128;4.220;2022-07-06T06:13:54;8.55;;;6.78;;
41323;SDS011;27073;51.128;4.220;2022-07-06T06:16:20;10.95;;;7.53;;
41323;SDS011;27073;51.128;4.220;2022-07-06T06:18:46;9.10;;;7.05;;
41323;SDS011;27073;51.128;4.220;2022-07-06T06:21:12;12.73;;;7.55;;
41323;SDS011;27073;51.128;4.220;2022-07-06T06:23:37;10.77;;;7.15;;
41323;SDS011;27073;51.128;4.220;2022-07-06T06:26:03;16.02;;;8.60;;
41323;SDS011;27073;51.128;4.220;2022-07-06T06:28:29;11.23;;;7.40;;
41323;SDS011;27073;51.128;4.220;2022-07-06T06:30:55;10.00;;;5.97;;
41323;SDS011;27073;51.128;4.220;2022-07-06T06:33:21;8.77;;;5.78;;
41323;SDS011;27073;51.128;4.220;2022-07-06T06:35:48;9.90;;;5.35;;
41323;SDS011;27073;51.128;4.220;2022-07-06T06:38:16;12.65;;;5.78;;
41323;SDS011;27073;51.128;4.220;2022-07-06T06:40:43;9.93;;;5.65;;
41323;SDS011;27073;51.128;4.220;2022-07-06T06:43:09;11.27;;;5.07;;
41323;SDS011;27073;51.128;4.220;2022-07-06T06:45:42;9.45;;;4.60;;
41323;SDS011;27073;51.128;4.220;2022-07-06T06:48:10;9.57;;;4.82;;
41323;SDS011;27073;51.128;4.220;2022-07-06T06:50:36;7.25;;;4.78;;
41323;SDS011;27073;51.128;4.220;2022-07-06T06:53:02;10.00;;;5.80;;
41323;SDS011;27073;51.128;4.220;2022-07-06T06:55:28;8.55;;;5.15;;
41323;SDS011;27073;51.128;4.220;2022-07-06T06:57:54;8.35;;;4.65;;
41323;SDS011;27073;51.128;4.220;2022-07-06T07:00:19;10.07;;;4.60;;
41323;SDS011;27073;51.128;4.220;2022-07-06T07:02:45;12.35;;;4.63;;
41323;SDS011;27073;51.128;4.220;2022-07-06T07:05:12;10.05;;;4.93;;
41323;SDS011;27073;51.128;4.220;2022-07-06T07:07:38;9.45;;;3.85;;
41323;SDS011;27073;51.128;4.220;2022-07-06T07:10:04;9.00;;;3.92;;
41323;SDS011;27073;51.128;4.220;2022-07-06T07:12:31;6.90;;;3.88;;
41323;SDS011;27073;51.128;4.220;2022-07-06T07:14:58;12.10;;;4.30;;
41323;SDS011;27073;51.128;4.220;2022-07-06T07:17:24;5.10;;;3.05;;
41323;SDS011;27073;51.128;4.220;2022-07-06T07:19:49;6.40;;;3.45;;
41323;SDS011;27073;51.128;4.220;2022-07-06T07:22:15;7.85;;;3.58;;
41323;SDS011;27073;51.128;4.220;2022-07-06T07:24:41;7.97;;;4.03;;
41323;SDS011;27073;51.128;4.220;2022-07-06T07:27:07;7.80;;;4.13;;
41323;SDS011;27073;51.128;4.220;2022-07-06T07:29:33;5.65;;;3.60;;
41323;SDS011;27073;51.128;4.220;2022-07-06T07:31:59;7.57;;;2.88;;
41323;SDS011;27073;51.128;4.220;2022-07-06T07:34:25;7.07;;;2.95;;
41323;SDS011;27073;51.128;4.220;2022-07-06T07:36:50;6.25;;;2.35;;
41323;SDS011;27073;51.128;4.220;2022-07-06T07:39:16;5.43;;;2.33;;
41323;SDS011;27073;51.128;4.220;2022-07-06T07:41:42;7.78;;;2.22;;
41323;SDS011;27073;51.128;4.220;2022-07-06T07:44:08;7.10;;;2.67;;
41323;SDS011;27073;51.128;4.220;2022-07-06T07:46:34;6.20;;;2.72;;
41323;SDS011;27073;51.128;4.220;2022-07-06T07:48:59;7.15;;;2.85;;
41323;SDS011;27073;51.128;4.220;2022-07-06T07:51:28;6.28;;;2.20;;
41323;SDS011;27073;51.128;4.220;2022-07-06T07:53:53;6.88;;;2.60;;
41323;SDS011;27073;51.128;4.220;2022-07-06T07:56:20;4.47;;;1.75;;
41323;SDS011;27073;51.128;4.220;2022-07-06T07:58:45;6.25;;;1.60;;
41323;SDS011;27073;51.128;4.220;2022-07-06T08:01:16;7.63;;;1.33;;
41323;SDS011;27073;51.128;4.220;2022-07-06T08:03:41;3.97;;;1.10;;
41323;SDS011;27073;51.128;4.220;2022-07-06T08:06:07;2.80;;;1.00;;
41323;SDS011;27073;51.128;4.220;2022-07-06T08:08:33;2.67;;;1.25;;
41323;SDS011;27073;51.128;4.220;2022-07-06T08:10:59;4.57;;;1.27;;
41323;SDS011;27073;51.128;4.220;2022-07-06T08:13:24;4.97;;;1.25;;
41323;SDS011;27073;51.128;4.220;2022-07-06T08:15:50;2.50;;;1.20;;
41323;SDS011;27073;51.128;4.220;2022-07-06T08:18:16;5.38;;;1.15;;
41323;SDS011;27073;51.128;4.220;2022-07-06T08:20:41;4.82;;;1.20;;
41323;SDS011;27073;51.128;4.220;2022-07-06T08:23:07;4.80;;;1.48;;
41323;SDS011;27073;51.128;4.220;2022-07-06T08:25:33;4.20;;;1.50;;
41323;SDS011;27073;51.128;4.220;2022-07-06T08:27:59;7.55;;;1.40;;
41323;SDS011;27073;51.128;4.220;2022-07-06T08:30:24;5.97;;;1.85;;
41323;SDS011;27073;51.128;4.220;2022-07-06T08:32:50;4.13;;;1.35;;
41323;SDS011;27073;51.128;4.220;2022-07-06T08:35:17;5.32;;;1.48;;
41323;SDS011;27073;51.128;4.220;2022-07-06T08:37:42;4.03;;;1.15;;
41323;SDS011;27073;51.128;4.220;2022-07-06T08:40:08;5.45;;;1.40;;
41323;SDS011;27073;51.128;4.220;2022-07-06T08:42:35;7.35;;;1.27;;
41323;SDS011;27073;51.128;4.220;2022-07-06T08:45:02;5.45;;;1.70;;
41323;SDS011;27073;51.128;4.220;2022-07-06T08:47:30;5.32;;;1.45;;
41323;SDS011;27073;51.128;4.220;2022-07-06T08:49:57;5.32;;;1.60;;
41323;SDS011;27073;51.128;4.220;2022-07-06T08:52:23;5.00;;;1.88;;
41323;SDS011;27073;51.128;4.220;2022-07-06T08:54:49;3.65;;;1.63;;
41323;SDS011;27073;51.128;4.220;2022-07-06T08:57:15;4.60;;;1.85;;
41323;SDS011;27073;51.128;4.220;2022-07-06T08:59:42;7.22;;;1.50;;
41323;SDS011;27073;51.128;4.220;2022-07-06T09:02:11;8.85;;;2.38;;
41323;SDS011;27073;51.128;4.220;2022-07-06T09:04:39;4.63;;;1.70;;
41323;SDS011;27073;51.128;4.220;2022-07-06T09:07:08;4.68;;;1.80;;
41323;SDS011;27073;51.128;4.220;2022-07-06T09:09:33;5.65;;;1.58;;
41323;SDS011;27073;51.128;4.220;2022-07-06T09:12:02;4.93;;;2.33;;
41323;SDS011;27073;51.128;4.220;2022-07-06T09:14:28;5.32;;;2.10;;
41323;SDS011;27073;51.128;4.220;2022-07-06T09:17:05;6.22;;;2.33;;
41323;SDS011;27073;51.128;4.220;2022-07-06T09:19:32;6.07;;;2.58;;
41323;SDS011;27073;51.128;4.220;2022-07-06T09:22:00;6.00;;;2.00;;
41323;SDS011;27073;51.128;4.220;2022-07-06T09:24:27;5.55;;;2.63;;
41323;SDS011;27073;51.128;4.220;2022-07-06T09:26:56;5.43;;;2.20;;
41323;SDS011;27073;51.128;4.220;2022-07-06T09:29:32;7.25;;;2.58;;
41323;SDS011;27073;51.128;4.220;2022-07-06T09:32:02;7.72;;;2.10;;
41323;SDS011;27073;51.128;4.220;2022-07-06T09:34:39;5.05;;;1.75;;
41323;SDS011;27073;51.128;4.220;2022-07-06T09:37:09;5.30;;;1.88;;
41323;SDS011;27073;51.128;4.220;2022-07-06T09:39:35;5.97;;;2.17;;
41323;SDS011;27073;51.128;4.220;2022-07-06T09:42:02;6.70;;;2.03;;
41323;SDS011;27073;51.128;4.220;2022-07-06T09:44:30;3.90;;;1.65;;
41323;SDS011;27073;51.128;4.220;2022-07-06T09:47:01;7.85;;;2.75;;
41323;SDS011;27073;51.128;4.220;2022-07-06T09:49:37;4.97;;;2.15;;
41323;SDS011;27073;51.128;4.220;2022-07-06T09:52:05;7.65;;;2.30;;
41323;SDS011;27073;51.128;4.220;2022-07-06T09:54:33;5.25;;;2.53;;
41323;SDS011;27073;51.128;4.220;2022-07-06T09:57:03;5.70;;;2.67;;
41323;SDS011;27073;51.128;4.220;2022-07-06T09:59:30;7.57;;;2.60;;
41323;SDS011;27073;51.128;4.220;2022-07-06T10:01:58;6.70;;;2.85;;
41323;SDS011;27073;51.128;4.220;2022-07-06T10:04:34;6.78;;;2.50;;
41323;SDS011;27073;51.128;4.220;2022-07-06T10:07:00;6.13;;;2.10;;
41323;SDS011;27073;51.128;4.220;2022-07-06T10:09:27;4.63;;;1.90;;
41323;SDS011;27073;51.128;4.220;2022-07-06T10:11:57;7.50;;;2.65;;
41323;SDS011;27073;51.128;4.220;2022-07-06T10:14:26;5.82;;;1.63;;
41323;SDS011;27073;51.128;4.220;2022-07-06T10:16:55;3.45;;;1.92;;
41323;SDS011;27073;51.128;4.220;2022-07-06T10:19:22;4.97;;;1.90;;
41323;SDS011;27073;51.128;4.220;2022-07-06T10:21:48;6.18;;;1.85;;
41323;SDS011;27073;51.128;4.220;2022-07-06T10:24:16;5.38;;;1.95;;
41323;SDS011;27073;51.128;4.220;2022-07-06T10:26:44;7.43;;;2.15;;
41323;SDS011;27073;51.128;4.220;2022-07-06T10:29:11;4.97;;;2.15;;
41323;SDS011;27073;51.128;4.220;2022-07-06T10:31:39;5.22;;;1.70;;
41323;SDS011;27073;51.128;4.220;2022-07-06T10:34:09;3.75;;;1.35;;
41323;SDS011;27073;51.128;4.220;2022-07-06T10:36:40;6.13;;;1.90;;
41323;SDS011;27073;51.128;4.220;2022-07-06T10:39:08;3.85;;;1.65;;
41323;SDS011;27073;51.128;4.220;2022-07-06T10:41:53;4.20;;;1.52;;
41323;SDS011;27073;51.128;4.220;2022-07-06T10:44:20;6.20;;;1.95;;
41323;SDS011;27073;51.128;4.220;2022-07-06T10:46:54;6.68;;;2.08;;
41323;SDS011;27073;51.128;4.220;2022-07-06T10:49:21;8.25;;;2.20;;
41323;SDS011;27073;51.128;4.220;2022-07-06T10:51:48;7.03;;;2.50;;
41323;SDS011;27073;51.128;4.220;2022-07-06T10:54:14;7.20;;;1.80;;
41323;SDS011;27073;51.128;4.220;2022-07-06T10:59:10;4.53;;;2.28;;
41323;SDS011;27073;51.128;4.220;2022-07-06T11:01:37;4.88;;;2.20;;
41323;SDS011;27073;51.128;4.220;2022-07-06T11:04:04;7.63;;;3.75;;
41323;SDS011;27073;51.128;4.220;2022-07-06T11:06:32;4.93;;;2.63;;
41323;SDS011;27073;51.128;4.220;2022-07-06T11:13:59;4.90;;;2.47;;
41323;SDS011;27073;51.128;4.220;2022-07-06T11:16:36;5.35;;;3.08;;
41323;SDS011;27073;51.128;4.220;2022-07-06T11:21:34;7.35;;;3.20;;
41323;SDS011;27073;51.128;4.220;2022-07-06T11:24:11;8.25;;;3.45;;
41323;SDS011;27073;51.128;4.220;2022-07-06T11:26:47;5.18;;;2.97;;
41323;SDS011;27073;51.128;4.220;2022-07-06T11:29:15;5.00;;;2.80;;
41323;SDS011;27073;51.128;4.220;2022-07-06T11:31:43;9.00;;;2.67;;
41323;SDS011;27073;51.128;4.220;2022-07-06T11:34:12;8.18;;;2.80;;
41323;SDS011;27073;51.128;4.220;2022-07-06T11:36:43;7.70;;;2.88;;
41323;SDS011;27073;51.128;4.220;2022-07-06T11:39:08;6.90;;;3.10;;
41323;SDS011;27073;51.128;4.220;2022-07-06T11:41:35;7.38;;;2.92;;
41323;SDS011;27073;51.128;4.220;2022-07-06T11:44:02;7.32;;;3.08;;
41323;SDS011;27073;51.128;4.220;2022-07-06T11:46:29;9.38;;;3.38;;
41323;SDS011;27073;51.128;4.220;2022-07-06T11:49:06;5.63;;;3.33;;
41323;SDS011;27073;51.128;4.220;2022-07-06T11:51:34;6.97;;;3.95;;
41323;SDS011;27073;51.128;4.220;2022-07-06T11:54:08;8.82;;;4.38;;
41323;SDS011;27073;51.128;4.220;2022-07-06T11:56:35;9.57;;;4.50;;
41323;SDS011;27073;51.128;4.220;2022-07-06T11:59:01;10.98;;;4.82;;
41323;SDS011;27073;51.128;4.220;2022-07-06T12:01:28;11.27;;;5.50;;
41323;SDS011;27073;51.128;4.220;2022-07-06T12:03:59;7.68;;;5.18;;
41323;SDS011;27073;51.128;4.220;2022-07-06T12:08:53;9.32;;;4.65;;
41323;SDS011;27073;51.128;4.220;2022-07-06T12:11:21;8.38;;;4.85;;
41323;SDS011;27073;51.128;4.220;2022-07-06T12:13:51;10.93;;;4.65;;
41323;SDS011;27073;51.128;4.220;2022-07-06T12:16:19;7.82;;;4.18;;
41323;SDS011;27073;51.128;4.220;2022-07-06T12:18:48;9.32;;;4.80;;
41323;SDS011;27073;51.128;4.220;2022-07-06T12:21:15;9.90;;;4.53;;
41323;SDS011;27073;51.128;4.220;2022-07-06T12:23:44;8.50;;;3.78;;
41323;SDS011;27073;51.128;4.220;2022-07-06T12:26:12;6.57;;;3.72;;
41323;SDS011;27073;51.128;4.220;2022-07-06T12:28:40;8.77;;;3.72;;
41323;SDS011;27073;51.128;4.220;2022-07-06T12:31:06;6.28;;;4.07;;
41323;SDS011;27073;51.128;4.220;2022-07-06T12:33:32;9.75;;;3.78;;
41323;SDS011;27073;51.128;4.220;2022-07-06T12:36:11;5.93;;;2.90;;
41323;SDS011;27073;51.128;4.220;2022-07-06T12:38:43;7.60;;;4.05;;
41323;SDS011;27073;51.128;4.220;2022-07-06T12:41:11;6.82;;;3.45;;
41323;SDS011;27073;51.128;4.220;2022-07-06T12:43:49;7.50;;;3.75;;
41323;SDS011;27073;51.128;4.220;2022-07-06T12:46:26;8.90;;;3.63;;
41323;SDS011;27073;51.128;4.220;2022-07-06T12:51:23;6.70;;;3.38;;
41323;SDS011;27073;51.128;4.220;2022-07-06T12:53:49;6.97;;;3.17;;
41323;SDS011;27073;51.128;4.220;2022-07-06T12:56:15;6.65;;;3.08;;
41323;SDS011;27073;51.128;4.220;2022-07-06T12:59:01;5.82;;;2.47;;
41323;SDS011;27073;51.128;4.220;2022-07-06T13:01:27;8.88;;;2.40;;
41323;SDS011;27073;51.128;4.220;2022-07-06T13:03:53;9.30;;;2.70;;
41323;SDS011;27073;51.128;4.220;2022-07-06T13:06:30;8.38;;;2.60;;
41323;SDS011;27073;51.128;4.220;2022-07-06T13:08:57;5.25;;;2.63;;
41323;SDS011;27073;51.128;4.220;2022-07-06T13:11:23;5.97;;;2.75;;
41323;SDS011;27073;51.128;4.220;2022-07-06T13:13:49;5.80;;;2.78;;
41323;SDS011;27073;51.128;4.220;2022-07-06T13:16:15;6.47;;;2.40;;
41323;SDS011;27073;51.128;4.220;2022-07-06T13:18:41;6.57;;;2.33;;
41323;SDS011;27073;51.128;4.220;2022-07-06T13:21:07;5.10;;;2.53;;
41323;SDS011;27073;51.128;4.220;2022-07-06T13:23:32;6.55;;;2.10;;
41323;SDS011;27073;51.128;4.220;2022-07-06T13:25:58;3.95;;;1.80;;
41323;SDS011;27073;51.128;4.220;2022-07-06T13:28:24;4.10;;;2.10;;
41323;SDS011;27073;51.128;4.220;2022-07-06T13:30:49;5.85;;;2.17;;
41323;SDS011;27073;51.128;4.220;2022-07-06T13:33:15;4.10;;;1.75;;
41323;SDS011;27073;51.128;4.220;2022-07-06T13:35:41;6.00;;;2.22;;
41323;SDS011;27073;51.128;4.220;2022-07-06T13:38:07;4.47;;;1.92;;
41323;SDS011;27073;51.128;4.220;2022-07-06T13:40:33;8.55;;;2.58;;
41323;SDS011;27073;51.128;4.220;2022-07-06T13:43:00;8.55;;;2.20;;
41323;SDS011;27073;51.128;4.220;2022-07-06T13:45:26;5.22;;;2.00;;
41323;SDS011;27073;51.128;4.220;2022-07-06T13:47:52;5.00;;;1.58;;
41323;SDS011;27073;51.128;4.220;2022-07-06T13:50:18;6.65;;;2.22;;
41323;SDS011;27073;51.128;4.220;2022-07-06T13:52:44;4.03;;;1.83;;
41323;SDS011;27073;51.128;4.220;2022-07-06T13:55:10;6.97;;;1.70;;
41323;SDS011;27073;51.128;4.220;2022-07-06T13:57:35;8.30;;;2.20;;
41323;SDS011;27073;51.128;4.220;2022-07-06T14:00:03;7.75;;;2.70;;
41323;SDS011;27073;51.128;4.220;2022-07-06T14:02:34;6.20;;;2.00;;
41323;SDS011;27073;51.128;4.220;2022-07-06T14:05:00;5.05;;;2.40;;
41323;SDS011;27073;51.128;4.220;2022-07-06T14:07:26;6.38;;;1.92;;
41323;SDS011;27073;51.128;4.220;2022-07-06T14:09:52;5.38;;;2.13;;
41323;SDS011;27073;51.128;4.220;2022-07-06T14:12:18;5.03;;;1.88;;
41323;SDS011;27073;51.128;4.220;2022-07-06T14:14:44;5.80;;;1.63;;
41323;SDS011;27073;51.128;4.220;2022-07-06T14:17:10;4.95;;;1.73;;
41323;SDS011;27073;51.128;4.220;2022-07-06T14:19:37;4.22;;;1.67;;
41323;SDS011;27073;51.128;4.220;2022-07-06T14:22:03;3.97;;;2.20;;
41323;SDS011;27073;51.128;4.220;2022-07-06T14:24:29;7.18;;;1.92;;
41323;SDS011;27073;51.128;4.220;2022-07-06T14:26:55;8.52;;;1.95;;
41323;SDS011;27073;51.128;4.220;2022-07-06T14:29:20;3.90;;;1.42;;
41323;SDS011;27073;51.128;4.220;2022-07-06T14:31:46;3.28;;;1.40;;
41323;SDS011;27073;51.128;4.220;2022-07-06T14:34:12;7.13;;;1.77;;
41323;SDS011;27073;51.128;4.220;2022-07-06T14:36:38;4.57;;;1.60;;
41323;SDS011;27073;51.128;4.220;2022-07-06T14:39:04;3.63;;;1.50;;
41323;SDS011;27073;51.128;4.220;2022-07-06T14:41:30;3.60;;;1.25;;
41323;SDS011;27073;51.128;4.220;2022-07-06T14:43:56;3.13;;;1.10;;
41323;SDS011;27073;51.128;4.220;2022-07-06T14:46:21;3.80;;;1.75;;
41323;SDS011;27073;51.128;4.220;2022-07-06T14:48:47;6.40;;;1.90;;
41323;SDS011;27073;51.128;4.220;2022-07-06T14:51:13;6.15;;;1.70;;
41323;SDS011;27073;51.128;4.220;2022-07-06T14:53:39;5.53;;;1.98;;
41323;SDS011;27073;51.128;4.220;2022-07-06T14:56:05;8.93;;;2.35;;
41323;SDS011;27073;51.128;4.220;2022-07-06T14:58:30;5.28;;;2.42;;
41323;SDS011;27073;51.128;4.220;2022-07-06T15:00:56;6.03;;;3.20;;
41323;SDS011;27073;51.128;4.220;2022-07-06T15:03:22;6.72;;;3.15;;
41323;SDS011;27073;51.128;4.220;2022-07-06T15:05:48;4.45;;;3.38;;